Hlavní strana
METAR-TAF:

METAR-TAF

Letiště :

Mendoza, Argentina

zeměpisná šířka: 32-50S, zeměpisná délka: 068-47W, výška: 705 m

Aktuální stav počasí

Zpráva byla vytvořena před 57 minutami, v 21:00 UTC
Východní vítr 6 kt
Teplota 32°C
Vlhkost vzduchu 36%
Tlak 1008 hPa
Viditelnost 10 km a více
Žádná oblačnost pod 1500 m, nevyskytují se cumulonimby.

METAR: SAME 212100Z 09006KT CAVOK 32/15 Q1008

Čas: 18:57 (21:57 UTC)

Předpověď počasí

Zpráva byla vytvořena před 4 hodinami a 57 minutami, v 17:00 UTC
Předpověď platná od 21 v 18 UTC do 22 v 18 UTC
Jihovýchodní vítr 10 kt
Viditelnost 10 km a více
Skoro jasno ve výšce 4000 ft
Změna
od 21 v 21 UTC do 21 v 23 UTC
Jižní vítr 10 kt
Viditelnost 10 km a více
Skoro jasno ve výšce 4000 ft, Vertikální cumulus.
Skoro jasno ve výšce 5000 ft, Cumulonimbus.
bouřka v blíkosti

TAF: SAME 211700Z 2118/2218 14010KT 9999 FEW040 TX34/2120Z TN23/2210Z BECMG 2121/2123 18010KT 9999 VCTS FEW040TCU FEW050CB

Stav a předpovědi počasí z více než 4 000 letišť (zprávy METAR a TAF).

Červené a žluté tečky na mapě představují dostupné meteorologické stanice.

Když kurzor umístíte na tečku, zobrazí se název stanice.

Pak kliknutím zobrazíte stav a předpověď počasí.

Chcete-li změnit mapu, kliknutím na zelené tlačítko se znaménkem +mapu přiblížíte, kliknutím na zelené tlačítko se znaménkem – mapu oddálíte a kliknutím na zelené šipky přejdete na sousední mapy.


METAR-TAF: